Time;durP1;ratioP1;P1;durP2;ratioP2;P2;SDS_P1;SDS_P2;PMS_P1;PMS_P2;Temp;Humidity;BMP_temperature;BMP_pressure;BME280_temperature;BME280_humidity;BME280_pressure;Samples;Min_cycle;Max_cycle;Signal;HPM_P1;HPM_P2
2021/04/11 00:04:25;;;;;;;44.80;25.12;;;;;;;6.23;85.92;100615.53;3580099;81;35639;-80
2021/04/11 00:09:26;;;;;;;56.20;31.10;;;;;;;6.30;85.64;100617.14;3562444;81;98368;-80
2021/04/11 00:14:27;;;;;;;59.57;30.03;;;;;;;6.23;85.96;100601.09;3581147;80;32799;-80
2021/04/11 00:19:28;;;;;;;47.20;28.97;;;;;;;6.22;85.66;100607.11;3578844;80;98285;-78
2021/04/11 00:24:28;;;;;;;43.87;26.30;;;;;;;6.13;87.06;100602.91;3581528;81;33119;-80
2021/04/11 00:29:29;;;;;;;51.47;29.93;;;;;;;6.02;86.57;100593.03;3563898;81;98707;-80
2021/04/11 00:34:30;;;;;;;53.77;28.83;;;;;;;5.97;87.54;100586.98;3575739;81;33214;-80
2021/04/11 00:39:30;;;;;;;48.00;28.57;;;;;;;5.94;88.75;100584.37;3576894;81;98366;-81
2021/04/11 00:44:33;;;;;;;46.87;28.30;;;;;;;5.94;88.59;100578.91;3577180;81;27524;-80
2021/04/11 00:49:43;;;;;;;52.98;31.68;;;;;;;5.99;88.85;100579.23;3571313;81;98521;-81
2021/04/11 00:54:44;;;;;;;58.80;33.17;;;;;;;5.99;88.50;100570.48;3577930;81;26030;-81
2021/04/11 00:59:45;;;;;;;59.30;34.17;;;;;;;6.02;88.53;100567.63;3558313;81;98098;-81
2021/04/11 01:04:45;;;;;;;64.70;35.10;;;;;;;6.05;87.82;100572.42;3549666;81;25978;-81
2021/04/11 01:09:48;;;;;;;60.03;34.53;;;;;;;5.96;88.10;100572.55;3547575;81;98590;-80
2021/04/11 01:14:49;;;;;;;54.37;31.73;;;;;;;5.93;89.58;100573.78;3568412;81;26295;-81
2021/04/11 01:19:51;;;;;;;54.93;31.40;;;;;;;5.90;88.68;100562.19;3532965;82;98831;-81
2021/04/11 01:25:06;;;;;;;57.10;32.00;;;;;;;5.99;88.75;100571.84;3522001;82;27514;-81
2021/04/11 01:30:24;;;;;;;58.87;34.03;;;;;;;6.05;88.95;100563.64;3538155;82;98934;-80
2021/04/11 01:35:28;;;;;;;58.37;34.83;;;;;;;6.07;88.66;100550.45;3532266;81;98854;-85
2021/04/11 01:40:43;;;;;;;59.00;33.53;;;;;;;6.02;88.87;100546.59;3542907;82;28309;-80
2021/04/11 01:45:45;;;;;;;54.70;32.87;;;;;;;5.95;89.41;100543.61;3528138;82;98630;-80
2021/04/11 01:50:47;;;;;;;58.83;34.87;;;;;;;5.90;89.63;100532.92;3540470;82;27659;-80
2021/04/11 01:55:51;;;;;;;49.90;31.10;;;;;;;5.87;89.88;100521.33;3538825;82;98797;-81
2021/04/11 02:01:24;;;;;;;58.93;33.50;;;;;;;5.92;90.15;100509.37;3540098;82;28367;-80
2021/04/11 02:06:26;;;;;;;52.70;30.83;;;;;;;5.99;89.79;100514.48;3528948;82;98845;-80
2021/04/11 02:11:27;;;;;;;51.77;30.93;;;;;;;6.04;90.35;100510.70;3535170;82;27457;-79
2021/04/11 02:16:32;;;;;;;57.93;33.47;;;;;;;6.05;89.95;100506.86;3561101;81;98677;-81
2021/04/11 02:21:34;;;;;;;54.10;33.60;;;;;;;6.04;90.18;100497.85;3570418;81;26085;-81
2021/04/11 02:26:38;;;;;;;53.97;31.37;;;;;;;6.05;90.02;100494.56;3575525;81;98744;-80
2021/04/11 02:31:39;;;;;;;53.27;31.17;;;;;;;6.04;89.70;100482.83;3569366;81;27597;-81
2021/04/11 02:36:48;;;;;;;50.10;29.37;;;;;;;6.05;89.54;100476.80;3569170;81;98852;-81
2021/04/11 02:41:49;;;;;;;48.63;30.17;;;;;;;6.09;89.57;100473.03;3584170;81;28491;-80
2021/04/11 02:46:50;;;;;;;53.57;30.93;;;;;;;6.15;89.36;100474.93;3583490;80;98884;-80
2021/04/11 02:51:53;;;;;;;49.40;29.90;;;;;;;6.22;89.27;100465.59;3577631;81;26654;-80
2021/04/11 02:56:54;;;;;;;52.60;31.17;;;;;;;6.22;89.70;100462.27;3562065;81;98547;-81
2021/04/11 03:01:55;;;;;;;54.93;33.17;;;;;;;6.24;88.55;100462.74;3576235;81;26592;-80
2021/04/11 03:07:10;;;;;;;54.37;32.57;;;;;;;6.19;88.50;100463.54;3583785;81;98542;-80
2021/04/11 03:12:13;;;;;;;51.33;31.20;;;;;;;6.07;89.35;100458.93;3576538;81;27471;-81
2021/04/11 03:17:18;;;;;;;46.50;29.67;;;;;;;6.01;88.63;100458.14;3568880;80;98704;-80
2021/04/11 03:22:20;;;;;;;50.37;31.53;;;;;;;5.97;88.70;100456.67;3582103;81;28424;-81
2021/04/11 03:27:38;;;;;;;52.90;31.30;;;;;;;5.94;89.46;100455.98;3570454;81;98865;-80
2021/04/11 03:32:49;;;;;;;50.13;31.60;;;;;;;5.93;89.07;100449.50;3577492;81;27458;-80
2021/04/11 03:37:55;;;;;;;56.83;32.67;;;;;;;5.97;89.05;100448.48;3579227;81;98525;-81
2021/04/11 03:43:03;;;;;;;52.77;32.20;;;;;;;6.00;88.82;100440.17;3586106;81;27410;-80
2021/04/11 03:48:18;;;;;;;62.97;35.30;;;;;;;5.96;88.64;100441.44;3556807;81;98854;-79
2021/04/11 03:53:38;;;;;;;59.33;33.07;;;;;;;5.89;88.76;100439.06;3582301;81;27564;-81
2021/04/11 03:58:49;;;;;;;61.35;33.38;;;;;;;5.85;89.32;100437.56;3568834;81;98704;-80
2021/04/11 04:03:55;;;;;;;49.53;31.70;;;;;;;5.86;88.88;100438.37;3573199;81;28187;-81
2021/04/11 04:08:56;;;;;;;51.10;30.90;;;;;;;5.94;88.80;100434.14;3562524;81;98573;-81
2021/04/11 04:14:24;;;;;;;54.10;32.93;;;;;;;5.95;88.68;100430.84;3587108;81;26093;-80
2021/04/11 04:19:48;;;;;;;58.97;36.67;;;;;;;5.95;88.70;100422.06;3572398;81;98376;-80
2021/04/11 04:25:00;;;;;;;57.83;32.87;;;;;;;5.99;88.43;100422.16;3576968;81;27496;-80
2021/04/11 04:30:21;;;;;;;57.03;33.17;;;;;;;5.98;88.32;100411.02;3560608;81;98184;-81
2021/04/11 04:35:51;;;;;;;53.23;30.93;;;;;;;5.99;88.56;100393.48;3579525;81;27642;-80
2021/04/11 04:41:06;;;;;;;48.93;28.67;;;;;;;6.05;88.32;100396.22;3579721;81;28460;-80
2021/04/11 04:46:32;;;;;;;48.90;30.90;;;;;;;6.14;88.46;100390.02;3570594;81;98918;-80
2021/04/11 04:51:54;;;;;;;54.83;30.57;;;;;;;6.25;88.18;100387.80;3572428;81;27635;-80
2021/04/11 04:57:24;;;;;;;56.77;32.65;;;;;;;6.34;87.83;100381.59;3554792;81;98738;-80
2021/04/11 05:02:30;;;;;;;50.30;30.17;;;;;;;6.44;87.49;100374.25;3576608;80;27571;-80
2021/04/11 05:07:35;;;;;;;54.40;29.30;;;;;;;6.50;87.19;100362.50;3570575;81;98949;-82
2021/04/11 05:12:48;;;;;;;51.40;28.60;;;;;;;6.59;86.99;100364.48;3572715;81;29230;-82
2021/04/11 05:18:00;;;;;;;50.30;29.23;;;;;;;6.73;86.54;100369.76;3571297;80;99025;-84
2021/04/11 05:23:36;;;;;;;54.33;32.87;;;;;;;6.86;86.28;100364.41;3578310;81;27470;-82
2021/04/11 05:29:18;;;;;;;57.60;32.10;;;;;;;6.97;85.76;100374.23;3465639;81;98376;-80
2021/04/11 05:34:23;;;;;;;53.33;28.97;;;;;;;7.05;85.60;100374.08;3570603;81;27470;-80
2021/04/11 05:39:54;;;;;;;51.47;29.63;;;;;;;7.14;85.12;100378.77;3573821;81;98934;-80
2021/04/11 05:44:59;;;;;;;49.97;28.67;;;;;;;7.28;84.51;100377.75;3568274;81;27663;-80
2021/04/11 05:50:06;;;;;;;47.47;29.10;;;;;;;7.45;84.24;100383.39;3555605;81;98489;-80
2021/04/11 05:55:10;;;;;;;49.18;28.73;;;;;;;7.62;83.75;100387.91;3572678;81;27466;-80
2021/04/11 06:00:16;;;;;;;53.97;31.73;;;;;;;7.81;83.32;100381.66;3576347;81;98556;-81
2021/04/11 06:05:28;;;;;;;60.35;34.90;;;;;;;7.98;83.06;100382.60;3576606;80;27552;-81
2021/04/11 06:10:54;;;;;;;56.77;32.17;;;;;;;8.15;82.77;100384.34;3569963;81;27750;-82
2021/04/11 06:16:06;;;;;;;53.57;31.00;;;;;;;8.30;82.53;100377.20;3575652;81;98377;-82
2021/04/11 06:21:19;;;;;;;50.80;29.83;;;;;;;8.46;81.68;100380.66;3575016;81;27621;-82
2021/04/11 06:26:36;;;;;;;50.60;30.40;;;;;;;8.62;81.08;100373.89;3570099;81;99100;-82
2021/04/11 06:31:59;;;;;;;53.90;33.53;;;;;;;8.85;80.64;100373.33;3571418;81;27613;-82
2021/04/11 06:37:04;;;;;;;51.70;30.50;;;;;;;9.10;79.66;100377.27;3570001;81;98491;-82
2021/04/11 06:42:30;;;;;;;57.47;33.43;;;;;;;9.33;79.47;100371.74;3579907;81;27446;-82
2021/04/11 06:48:13;;;;;;;55.10;34.97;;;;;;;9.53;79.07;100363.58;3574419;80;98526;-82
2021/04/11 06:53:51;;;;;;;49.00;30.53;;;;;;;9.73;78.37;100364.47;3581245;81;27507;-81
2021/04/11 06:59:01;;;;;;;52.97;31.43;;;;;;;10.27;76.26;100345.52;3569751;81;98342;-81
2021/04/11 07:04:38;;;;;;;57.33;33.17;;;;;;;10.27;76.26;100345.52;3579669;81;28547;-82
2021/04/11 07:10:28;;;;;;;50.95;32.42;;;;;;;10.57;76.68;100349.56;3576755;81;98910;-80
2021/04/11 07:15:49;;;;;;;53.60;33.33;;;;;;;10.86;75.79;100339.78;3566315;80;99090;-80
2021/04/11 07:21:29;;;;;;;52.00;32.70;;;;;;;11.14;73.83;100333.14;3550329;81;26678;-81
2021/04/11 07:26:59;;;;;;;57.50;33.77;;;;;;;11.35;73.95;100338.00;3541545;81;99007;-81
2021/04/11 07:32:29;;;;;;;50.80;31.63;;;;;;;11.61;73.54;100332.28;3549454;81;27402;-82
2021/04/11 07:37:47;;;;;;;49.37;30.47;;;;;;;11.77;72.66;100332.77;3539916;81;98995;-82
2021/04/11 07:43:14;;;;;;;48.03;30.70;;;;;;;12.05;72.25;100320.46;3543354;81;28486;-83
2021/04/11 07:48:47;;;;;;;47.62;28.55;;;;;;;12.25;71.43;100299.03;3540555;81;99055;-83
2021/04/11 07:54:21;;;;;;;46.20;28.50;;;;;;;12.59;70.53;100316.05;3553033;81;27407;-82
2021/04/11 07:59:38;;;;;;;50.77;31.20;;;;;;;12.73;69.57;100322.95;3526090;81;98816;-81
2021/04/11 08:05:22;;;;;;;40.83;28.13;;;;;;;12.82;68.33;100327.50;3549879;81;27711;-82
2021/04/11 08:10:48;;;;;;;44.30;28.43;;;;;;;12.99;68.14;100326.16;3539177;81;99140;-80
2021/04/11 08:16:35;;;;;;;43.40;30.77;;;;;;;13.18;67.34;100320.79;3534048;80;98667;-80
2021/04/11 08:22:08;;;;;;;42.07;26.83;;;;;;;13.48;67.33;100316.41;3546250;82;28462;-81
2021/04/11 08:27:47;;;;;;;40.03;26.20;;;;;;;13.88;66.81;100311.73;3534211;82;98703;-80
2021/04/11 08:33:36;;;;;;;37.67;23.30;;;;;;;14.25;66.28;100307.02;3524555;82;28288;-80
2021/04/11 08:39:00;;;;;;;31.10;19.73;;;;;;;14.74;65.05;100296.41;3539716;82;99242;-82
2021/04/11 08:44:21;;;;;;;35.30;19.87;;;;;;;15.29;61.95;100296.30;3539645;82;27977;-81
2021/04/11 08:49:48;;;;;;;29.65;18.37;;;;;;;15.68;61.11;100293.31;3527638;82;98816;-82
2021/04/11 08:54:59;;;;;;;27.00;16.07;;;;;;;16.06;59.74;100287.88;3485699;82;28313;-81
2021/04/11 09:00:21;;;;;;;23.87;14.63;;;;;;;16.22;59.02;100277.54;3531569;82;98670;-81
2021/04/11 09:05:42;;;;;;;23.93;14.17;;;;;;;16.52;58.36;100271.98;3520890;82;31832;-81
2021/04/11 09:11:06;;;;;;;24.80;12.63;;;;;;;16.54;57.07;100270.94;3533443;82;30226;-81
2021/04/11 09:16:32;;;;;;;19.98;12.37;;;;;;;16.66;56.22;100272.53;3531849;80;99061;-81
2021/04/11 09:21:38;;;;;;;20.17;10.67;;;;;;;17.48;55.18;100263.74;3589793;80;28909;-82
2021/04/11 09:26:51;;;;;;;17.30;10.38;;;;;;;17.48;55.18;100263.74;3597674;80;98942;-82
2021/04/11 09:32:27;;;;;;;15.97;8.80;;;;;;;17.80;53.50;100253.34;3600689;80;30787;-82
2021/04/11 09:38:09;;;;;;;11.88;6.12;;;;;;;18.34;53.15;100249.78;3551505;80;98571;-82
2021/04/11 09:43:36;;;;;;;10.95;4.80;;;;;;;19.01;51.06;100242.56;3603540;80;32781;-81
2021/04/11 09:49:11;;;;;;;11.45;4.72;;;;;;;19.28;47.98;100246.61;3588345;80;98985;-82
2021/04/11 09:54:41;;;;;;;14.05;5.97;;;;;;;19.39;47.52;100233.75;3603389;79;33992;-83
2021/04/11 09:59:53;;;;;;;11.12;5.70;;;;;;;19.85;47.10;100226.25;3500183;80;98628;-81
2021/04/11 10:05:24;;;;;;;10.35;5.60;;;;;;;20.48;46.36;100218.08;3596528;80;31955;-83
2021/04/11 10:10:45;;;;;;;13.68;5.40;;;;;;;20.93;46.58;100211.59;3592039;80;32598;-83
2021/04/11 10:15:54;;;;;;;12.88;6.60;;;;;;;21.49;46.08;100198.99;3597183;80;98805;-82
2021/04/11 10:21:18;;;;;;;14.15;6.30;;;;;;;21.73;43.86;100205.70;3579344;80;32646;-82
2021/04/11 10:26:33;;;;;;;13.72;5.50;;;;;;;21.88;42.98;100195.53;3579247;81;98982;-84
2021/04/11 10:32:20;;;;;;;13.20;5.00;;;;;;;22.02;40.66;100190.15;3584122;81;32874;-82
2021/04/11 10:37:45;;;;;;;9.50;3.98;;;;;;;22.31;42.24;100186.39;3565280;81;98638;-84
2021/04/11 10:43:00;;;;;;;10.20;4.35;;;;;;;22.70;40.64;100172.96;3574754;81;33838;-81
2021/04/11 10:48:35;;;;;;;9.20;3.20;;;;;;;22.86;39.10;100162.06;3574669;79;98772;-83
2021/04/11 10:53:53;;;;;;;8.73;2.55;;;;;;;22.86;39.10;100162.06;3581103;81;32686;-82
2021/04/11 10:59:33;;;;;;;9.98;3.20;;;;;;;22.73;38.15;100162.20;3565608;80;98509;-81
2021/04/11 11:05:07;;;;;;;11.95;4.30;;;;;;;22.89;36.95;100152.72;3570899;81;32647;-85
2021/04/11 11:10:35;;;;;;;12.58;4.33;;;;;;;22.88;35.79;100157.55;3576786;81;98630;-81
2021/04/11 11:16:09;;;;;;;9.98;3.72;;;;;;;22.65;34.85;100150.34;3566186;81;98505;-86
2021/04/11 11:21:33;;;;;;;9.33;3.22;;;;;;;22.57;34.85;100155.47;3584372;80;33268;-81
2021/04/11 11:26:56;;;;;;;10.98;3.22;;;;;;;22.33;32.32;100150.25;3513749;81;98393;-81
2021/04/11 11:32:25;;;;;;;10.40;2.90;;;;;;;22.28;34.77;100136.08;3583346;81;32736;-82
2021/04/11 11:37:35;;;;;;;9.55;3.95;;;;;;;22.40;34.96;100124.71;3576349;80;98505;-82
2021/04/11 11:43:03;;;;;;;10.40;3.87;;;;;;;22.23;34.55;100136.68;3576361;81;33292;-83
2021/04/11 11:48:21;;;;;;;12.85;3.77;;;;;;;21.79;32.80;100124.06;3575336;81;98526;-81
2021/04/11 11:53:27;;;;;;;8.95;3.62;;;;;;;21.54;34.98;100115.80;3577595;81;32624;-82
2021/04/11 11:58:36;;;;;;;10.18;3.95;;;;;;;21.62;34.84;100116.46;3572980;80;98949;-81
2021/04/11 12:03:37;;;;;;;12.37;3.58;;;;;;;21.54;31.24;100135.41;3579399;81;33312;-81
2021/04/11 12:09:15;;;;;;;13.68;4.35;;;;;;;21.13;33.85;100121.13;3578879;81;98934;-82
2021/04/11 12:14:31;;;;;;;14.45;4.78;;;;;;;21.33;35.54;100124.39;3578709;81;33175;-83
2021/04/11 12:19:40;;;;;;;13.98;4.55;;;;;;;21.46;33.57;100129.89;3586643;80;98557;-82
2021/04/11 12:25:01;;;;;;;7.47;3.67;;;;;;;21.55;34.95;100125.14;3586513;80;31409;-82
2021/04/11 12:30:07;;;;;;;10.80;4.83;;;;;;;21.35;33.39;100119.11;3593072;80;98369;-87
2021/04/11 12:35:22;;;;;;;9.35;3.80;;;;;;;21.36;35.79;100114.30;3604363;80;28325;-83
2021/04/11 12:40:38;;;;;;;12.95;4.33;;;;;;;21.42;35.51;100124.43;3605611;80;98239;-82
2021/04/11 12:45:59;;;;;;;13.77;6.03;;;;;;;21.35;35.82;100113.51;3602249;80;98901;-84
2021/04/11 12:51:07;;;;;;;13.15;4.50;;;;;;;21.18;35.91;100112.77;3599345;80;31209;-81
2021/04/11 12:56:13;;;;;;;11.22;4.45;;;;;;;21.09;36.26;100107.12;3597868;80;98642;-82
2021/04/11 13:01:37;;;;;;;10.78;5.83;;;;;;;21.01;36.28;100103.00;3605298;80;33324;-81
2021/04/11 13:07:12;;;;;;;10.93;4.25;;;;;;;20.94;36.06;100104.06;3594986;80;98766;-80
2021/04/11 13:12:46;;;;;;;8.80;3.92;;;;;;;21.02;36.46;100101.16;3605845;80;31235;-80
2021/04/11 13:18:17;;;;;;;9.93;4.12;;;;;;;21.07;36.98;100093.58;3592985;80;98320;-80
2021/04/11 13:23:50;;;;;;;8.08;3.30;;;;;;;21.10;37.39;100084.25;3572362;81;30915;-79
2021/04/11 13:29:17;;;;;;;7.97;3.83;;;;;;;21.21;37.25;100093.03;3571221;81;98320;-80
2021/04/11 13:35:05;;;;;;;9.50;3.87;;;;;;;21.28;37.85;100073.19;3580281;81;31806;-80
2021/04/11 13:40:10;;;;;;;6.92;2.67;;;;;;;21.35;37.72;100078.52;3568040;81;98194;-81
2021/04/11 13:45:31;;;;;;;7.93;3.87;;;;;;;21.30;36.67;100092.34;3571976;81;28230;-81
2021/04/11 13:50:46;;;;;;;8.95;3.35;;;;;;;21.28;35.78;100075.99;3578965;81;31459;-81
2021/04/11 13:55:56;;;;;;;8.23;3.77;;;;;;;21.15;35.39;100086.47;3566834;81;98818;-80
2021/04/11 14:01:10;;;;;;;10.60;3.65;;;;;;;20.78;35.96;100070.65;3570455;81;31574;-80
2021/04/11 14:06:37;;;;;;;8.48;2.85;;;;;;;20.63;37.62;100072.98;3571587;80;98466;-80
2021/04/11 14:11:49;;;;;;;8.15;2.80;;;;;;;20.55;37.74;100068.89;3582933;80;32803;-80
2021/04/11 14:17:00;;;;;;;7.92;3.30;;;;;;;20.40;38.40;100079.00;3576571;81;100638;-80
2021/04/11 14:22:06;;;;;;;9.60;2.98;;;;;;;20.35;39.09;100081.76;3566986;81;31871;-80
2021/04/11 14:27:31;;;;;;;7.20;2.97;;;;;;;20.24;39.01;100086.92;3540501;81;98289;-81
2021/04/11 14:32:49;;;;;;;9.03;2.77;;;;;;;20.18;39.25;100090.12;3545299;81;30776;-81
2021/04/11 14:38:34;;;;;;;10.98;3.75;;;;;;;20.05;39.53;100099.09;3534060;81;98334;-80
2021/04/11 14:43:45;;;;;;;14.77;3.20;;;;;;;19.71;39.30;100093.42;3545902;81;31061;-81
2021/04/11 14:48:46;;;;;;;7.87;3.35;;;;;;;19.30;40.21;100099.69;3537734;81;99635;-79
2021/04/11 14:54:17;;;;;;;10.47;4.83;;;;;;;19.19;40.29;100103.37;3544764;81;30808;-83
2021/04/11 14:59:38;;;;;;;9.90;3.90;;;;;;;19.12;40.58;100112.71;3545749;81;98465;-79
2021/04/11 15:05:17;;;;;;;13.77;8.17;;;;;;;18.80;40.72;100110.66;3538577;81;30956;-79
2021/04/11 15:10:50;;;;;;;7.97;2.80;;;;;;;18.59;41.13;100109.83;3534699;81;98354;-80
2021/04/11 15:16:05;;;;;;;12.47;7.67;;;;;;;18.45;40.71;100112.38;3545595;80;98491;-79
2021/04/11 15:21:37;;;;;;;11.57;6.50;;;;;;;18.38;41.46;100112.56;3563516;81;31401;-80
2021/04/11 15:26:50;;;;;;;7.07;3.63;;;;;;;18.29;42.04;100112.36;3569067;81;98780;-80
2021/04/11 15:31:58;;;;;;;8.33;3.98;;;;;;;18.18;41.93;100107.66;3561742;81;33188;-79
2021/04/11 15:37:25;;;;;;;9.85;5.33;;;;;;;18.04;42.29;100094.70;3573725;81;98387;-79
2021/04/11 15:42:59;;;;;;;9.60;4.83;;;;;;;17.92;42.71;100098.95;3582507;81;32162;-80
2021/04/11 15:48:26;;;;;;;10.90;4.95;;;;;;;17.85;42.85;100089.38;3574553;81;98507;-79
2021/04/11 15:53:58;;;;;;;10.63;4.50;;;;;;;17.75;43.14;100084.84;3582059;81;28135;-80
2021/04/11 15:59:17;;;;;;;6.37;2.87;;;;;;;17.66;43.48;100079.70;3572311;81;98533;-80
2021/04/11 16:04:29;;;;;;;10.87;3.03;;;;;;;17.56;43.12;100086.30;3583287;81;28957;-81
2021/04/11 16:09:34;;;;;;;9.10;3.72;;;;;;;17.48;43.59;100088.45;3570502;81;98586;-79
2021/04/11 16:15:08;;;;;;;11.50;3.17;;;;;;;17.43;44.00;100087.56;3556592;81;28895;-80
2021/04/11 16:20:21;;;;;;;9.80;3.67;;;;;;;17.35;44.20;100075.02;3567427;80;98502;-79
2021/04/11 16:25:32;;;;;;;9.20;3.30;;;;;;;17.29;44.50;100085.08;3541010;82;28485;-79
2021/04/11 16:30:57;;;;;;;12.03;5.33;;;;;;;17.22;44.67;100076.86;3542747;81;29362;-79
2021/04/11 16:36:08;;;;;;;10.28;3.27;;;;;;;17.15;44.83;100077.62;3538861;82;98641;-80
2021/04/11 16:41:30;;;;;;;7.13;3.07;;;;;;;17.02;45.36;100078.91;3548683;82;27862;-79
2021/04/11 16:46:48;;;;;;;10.23;3.17;;;;;;;16.88;45.68;100089.50;3535093;82;98326;-80
2021/04/11 16:51:51;;;;;;;7.30;3.03;;;;;;;16.72;46.13;100083.86;3430445;83;28429;-78
2021/04/11 16:57:06;;;;;;;6.45;2.80;;;;;;;16.60;46.41;100091.44;3466649;83;98438;-79
2021/04/11 17:02:40;;;;;;;7.07;3.13;;;;;;;16.45;46.78;100085.36;3473677;83;27919;-79
2021/04/11 17:07:52;;;;;;;7.57;3.17;;;;;;;16.35;47.15;100091.86;3462130;83;98510;-79
2021/04/11 17:13:19;;;;;;;6.90;2.93;;;;;;;16.25;47.39;100097.61;3465553;83;27670;-79
2021/04/11 17:18:20;;;;;;;7.23;3.00;;;;;;;16.12;47.62;100104.95;3461555;83;98250;-79
2021/04/11 17:23:37;;;;;;;8.50;3.33;;;;;;;15.97;47.95;100103.01;3498615;82;26990;-79
2021/04/11 17:29:05;;;;;;;7.83;3.50;;;;;;;15.83;48.22;100106.02;3498856;82;99096;-80
2021/04/11 17:34:34;;;;;;;10.47;3.60;;;;;;;15.72;48.48;100106.78;3506360;82;28288;-80
2021/04/11 17:39:36;;;;;;;8.57;4.23;;;;;;;15.61;48.86;100112.30;3508426;82;98313;-80
2021/04/11 17:44:58;;;;;;;11.63;3.90;;;;;;;15.46;49.22;100120.62;3520143;82;28399;-80
2021/04/11 17:50:12;;;;;;;10.07;5.27;;;;;;;15.37;49.58;100124.52;3510412;82;98730;-79
2021/04/11 17:55:27;;;;;;;39.20;15.77;;;;;;;15.23;49.96;100130.21;3519295;82;27044;-80
2021/04/11 18:00:42;;;;;;;34.83;14.87;;;;;;;15.08;50.23;100134.34;3515791;82;27484;-80
2021/04/11 18:06:03;;;;;;;35.30;15.55;;;;;;;14.95;50.41;100136.89;3505813;82;99015;-79
2021/04/11 18:11:18;;;;;;;35.05;15.48;;;;;;;14.80;50.86;100134.08;3513890;82;31362;-80
2021/04/11 18:16:24;;;;;;;23.90;10.90;;;;;;;14.69;51.31;100146.46;3500855;82;98974;-80
2021/04/11 18:21:39;;;;;;;16.10;7.45;;;;;;;14.56;52.09;100144.03;3517555;81;29117;-80
2021/04/11 18:26:51;;;;;;;14.58;6.25;;;;;;;14.34;52.54;100141.27;3507822;82;98777;-79
2021/04/11 18:32:17;;;;;;;14.17;7.80;;;;;;;14.13;53.08;100148.33;3506809;82;30224;-80
2021/04/11 18:37:40;;;;;;;77.70;31.70;;;;;;;13.97;53.56;100140.55;3505447;82;98896;-79
2021/04/11 18:42:49;;;;;;;150.03;58.93;;;;;;;13.83;54.07;100139.83;3509327;82;28821;-79
2021/04/11 18:48:27;;;;;;;79.53;35.03;;;;;;;13.65;54.27;100149.64;3511705;82;99117;-79
2021/04/11 18:54:00;;;;;;;31.87;15.55;;;;;;;13.50;54.79;100145.96;3509064;82;31740;-80
2021/04/11 18:59:29;;;;;;;22.82;10.63;;;;;;;13.32;55.20;100148.84;3512497;82;98594;-79
2021/04/11 19:04:50;;;;;;;20.93;8.73;;;;;;;13.15;55.73;100148.31;3511985;82;28854;-80
2021/04/11 19:10:12;;;;;;;20.27;9.40;;;;;;;12.98;56.12;100145.00;3469745;82;98682;-80
2021/04/11 19:15:43;;;;;;;21.77;10.23;;;;;;;12.85;56.59;100145.80;3488211;82;27525;-80
2021/04/11 19:21:15;;;;;;;23.57;11.90;;;;;;;12.73;56.98;100142.88;3507265;82;27497;-80
2021/04/11 19:26:51;;;;;;;23.23;12.03;;;;;;;12.55;57.36;100130.30;3497922;82;99116;-80
2021/04/11 19:32:18;;;;;;;23.20;10.27;;;;;;;12.49;57.64;100135.41;3509708;82;27547;-80
2021/04/11 19:37:36;;;;;;;18.50;9.88;;;;;;;12.35;58.20;100134.65;3512739;82;99190;-80
2021/04/11 19:42:59;;;;;;;16.17;7.63;;;;;;;12.23;58.35;100125.39;3507039;82;27979;-80
2021/04/11 19:48:17;;;;;;;17.60;8.18;;;;;;;12.13;58.75;100125.61;3514433;82;99026;-80
2021/04/11 19:53:54;;;;;;;20.32;9.40;;;;;;;12.02;59.31;100122.63;3489489;82;27067;-80
2021/04/11 19:59:28;;;;;;;20.57;9.03;;;;;;;11.92;59.55;100117.90;3505802;82;98734;-80
2021/04/11 20:04:46;;;;;;;14.90;6.87;;;;;;;11.80;59.87;100116.91;3512955;82;28433;-79
2021/04/11 20:10:15;;;;;;;18.47;8.93;;;;;;;11.70;60.26;100114.92;3513633;82;98655;-80
2021/04/11 20:15:45;;;;;;;19.93;10.77;;;;;;;11.62;60.50;100113.34;3509252;82;27508;-79
2021/04/11 20:21:00;;;;;;;20.80;11.50;;;;;;;11.45;61.49;100109.33;3507096;82;28284;-78
2021/04/11 20:26:35;;;;;;;22.10;12.10;;;;;;;11.45;61.49;100109.33;3467131;83;98773;-80
2021/04/11 20:32:04;;;;;;;20.90;11.63;;;;;;;11.34;61.95;100102.23;3479762;83;27505;-80
2021/04/11 20:37:53;;;;;;;23.85;12.75;;;;;;;11.27;62.43;100098.86;3514257;82;99164;-80
2021/04/11 20:43:26;;;;;;;22.10;11.80;;;;;;;11.22;62.78;100094.30;3537101;82;28502;-80
2021/04/11 20:49:11;;;;;;;21.93;11.80;;;;;;;11.16;63.42;100095.86;3531786;82;99361;-79
2021/04/11 20:54:42;;;;;;;26.07;11.30;;;;;;;11.13;63.44;100098.80;3531535;82;27576;-80
2021/04/11 21:00:07;;;;;;;22.87;11.93;;;;;;;11.08;64.03;100091.52;3537630;82;98749;-79
2021/04/11 21:05:47;;;;;;;20.57;10.93;;;;;;;11.03;64.26;100094.65;3538293;81;28215;-79
2021/04/11 21:11:18;;;;;;;23.00;9.63;;;;;;;10.99;64.30;100095.21;3540825;82;27419;-79
2021/04/11 21:16:30;;;;;;;18.63;8.83;;;;;;;10.91;64.61;100102.65;3540602;82;98530;-79
2021/04/11 21:22:10;;;;;;;19.60;9.83;;;;;;;10.87;64.52;100107.95;3545404;82;27563;-80
2021/04/11 21:27:53;;;;;;;21.50;9.40;;;;;;;10.86;64.72;100111.28;3544981;81;98614;-79
2021/04/11 21:33:26;;;;;;;16.50;8.40;;;;;;;10.82;64.96;100111.87;3543464;82;27483;-77
2021/04/11 21:38:55;;;;;;;22.30;9.90;;;;;;;10.80;64.88;100113.43;3532546;82;98686;-79
2021/04/11 21:43:59;;;;;;;22.70;10.30;;;;;;;10.78;65.21;100116.56;3547120;81;27586;-80
2021/04/11 21:49:43;;;;;;;22.77;9.90;;;;;;;10.73;65.19;100113.38;3537187;81;98734;-79
2021/04/11 21:55:23;;;;;;;19.53;8.80;;;;;;;10.68;65.26;100112.39;3544139;81;27708;-80
2021/04/11 22:00:41;;;;;;;18.97;8.57;;;;;;;10.59;65.28;100115.48;3539763;81;98791;-79
2021/04/11 22:05:56;;;;;;;18.03;8.80;;;;;;;10.53;65.89;100105.22;3534865;81;98816;-79
2021/04/11 22:11:25;;;;;;;18.80;8.70;;;;;;;10.55;65.88;100115.25;3529316;81;47087;-80
2021/04/11 22:17:00;;;;;;;19.40;9.33;;;;;;;10.55;65.84;100111.92;3541209;81;98932;-80
2021/04/11 22:22:18;;;;;;;19.63;9.63;;;;;;;10.60;65.71;100119.81;3555874;81;28490;-79
2021/04/11 22:27:44;;;;;;;27.93;10.82;;;;;;;10.61;65.71;100120.01;3566070;81;98630;-79
2021/04/11 22:32:45;;;;;;;22.33;10.40;;;;;;;10.54;65.54;100117.22;3579640;80;27492;-79
2021/04/11 22:37:59;;;;;;;23.47;9.90;;;;;;;10.47;65.70;100126.78;3578818;81;98937;-80
2021/04/11 22:43:18;;;;;;;20.30;9.50;;;;;;;10.39;65.90;100131.25;3592738;80;27915;-79
2021/04/11 22:48:36;;;;;;;19.83;9.43;;;;;;;10.27;66.00;100128.81;3580958;81;98790;-78
2021/04/11 22:54:00;;;;;;;21.47;9.63;;;;;;;10.19;66.23;100135.44;3584958;80;27462;-79
2021/04/11 22:59:36;;;;;;;17.50;8.53;;;;;;;10.08;66.40;100147.72;3575784;81;98327;-79
2021/04/11 23:05:17;;;;;;;19.57;8.57;;;;;;;9.99;66.65;100147.80;3578820;81;28239;-79
2021/04/11 23:10:30;;;;;;;19.30;9.57;;;;;;;9.88;67.02;100153.19;3571275;81;98083;-79
2021/04/11 23:15:45;;;;;;;21.03;8.80;;;;;;;9.78;67.22;100150.35;3578010;80;98457;-79
2021/04/11 23:21:06;;;;;;;20.20;8.37;;;;;;;9.70;67.77;100151.47;3570409;81;27482;-78
2021/04/11 23:26:18;;;;;;;17.45;7.65;;;;;;;9.69;67.90;100141.05;3568656;81;98420;-78
2021/04/11 23:31:59;;;;;;;21.47;8.77;;;;;;;9.75;68.11;100149.75;3575743;81;27455;-80
2021/04/11 23:37:21;;;;;;;18.07;8.03;;;;;;;9.85;68.15;100145.72;3567533;81;100675;-79
2021/04/11 23:42:51;;;;;;;15.50;7.67;;;;;;;9.88;68.02;100148.30;3571163;81;28124;-79
2021/04/11 23:48:18;;;;;;;16.93;7.47;;;;;;;9.82;67.67;100151.95;3573243;81;98801;-78
2021/04/11 23:54:00;;;;;;;15.63;7.60;;;;;;;9.74;67.80;100146.77;3577517;80;27452;-79
2021/04/11 23:59:33;;;;;;;19.40;8.40;;;;;;;9.62;67.86;100146.48;3564437;81;98431;-78
